createdAt,value
2017-11-14T00:00:50.377Z,90.99
2017-11-14T00:03:18.625Z,90.82
2017-11-14T00:05:47.642Z,90.87
2017-11-14T00:08:15.900Z,90.89
2017-11-14T00:10:44.174Z,90.95
2017-11-14T00:13:13.196Z,91.12
2017-11-14T00:15:41.470Z,91.02
2017-11-14T00:18:09.711Z,91.09
2017-11-14T00:20:38.732Z,90.66
2017-11-14T00:23:06.991Z,91.50
2017-11-14T00:25:36.015Z,91.84
2017-11-14T00:28:04.288Z,92.14
2017-11-14T00:30:32.547Z,92.35
2017-11-14T00:33:01.571Z,92.29
2017-11-14T00:35:29.823Z,92.34
2017-11-14T00:37:58.080Z,92.21
2017-11-14T00:40:27.099Z,91.85
2017-11-14T00:42:55.363Z,91.16
2017-11-14T00:45:23.619Z,91.44
2017-11-14T00:47:52.667Z,91.27
2017-11-14T00:50:20.925Z,91.39
2017-11-14T00:52:49.182Z,91.79
2017-11-14T00:55:17.454Z,91.89
2017-11-14T00:57:45.712Z,91.64
2017-11-14T01:00:14.735Z,91.56
2017-11-14T01:02:42.982Z,91.71
2017-11-14T01:05:11.240Z,91.62
2017-11-14T01:07:39.492Z,91.32
2017-11-14T01:10:07.750Z,91.00
2017-11-14T01:12:36.001Z,90.96
2017-11-14T01:15:04.255Z,91.29
2017-11-14T01:17:33.279Z,91.13
2017-11-14T01:20:01.536Z,90.84
2017-11-14T01:22:30.549Z,91.93
2017-11-14T01:24:58.804Z,91.99
2017-11-14T01:27:27.821Z,91.79
2017-11-14T01:29:56.079Z,92.07
2017-11-14T01:32:24.337Z,92.20
2017-11-14T01:34:52.587Z,92.30
2017-11-14T01:37:20.835Z,92.33
2017-11-14T01:39:49.087Z,92.50
2017-11-14T01:42:17.325Z,92.55
2017-11-14T01:44:45.578Z,92.59
2017-11-14T01:47:13.829Z,92.04
2017-11-14T01:49:42.074Z,91.55
2017-11-14T01:52:11.083Z,91.35
2017-11-14T01:54:39.340Z,90.55
2017-11-14T01:57:08.350Z,90.77
2017-11-14T01:59:36.595Z,90.87
2017-11-14T02:02:05.604Z,90.96
2017-11-14T02:04:33.859Z,90.81
2017-11-14T02:07:02.106Z,90.83
2017-11-14T02:09:30.350Z,90.99
2017-11-14T02:11:58.610Z,90.93
2017-11-14T02:14:26.860Z,90.95
2017-11-14T02:16:55.118Z,91.23
2017-11-14T02:19:23.365Z,91.32
2017-11-14T02:21:51.603Z,91.52
2017-11-14T02:24:20.614Z,91.51
2017-11-14T02:26:54.214Z,91.45
2017-11-14T02:29:22.564Z,91.36
2017-11-14T02:31:51.586Z,91.26
2017-11-14T02:34:19.833Z,91.24
2017-11-14T02:36:48.851Z,91.30
2017-11-14T02:39:17.094Z,91.39
2017-11-14T02:41:45.341Z,91.42
2017-11-14T02:44:13.592Z,91.55
2017-11-14T02:46:41.835Z,91.60
2017-11-14T02:49:10.854Z,91.55
2017-11-14T02:51:39.094Z,91.40
2017-11-14T02:54:07.345Z,91.56
2017-11-14T02:56:35.590Z,91.76
2017-11-14T02:59:03.850Z,91.20
2017-11-14T03:01:32.086Z,91.25
2017-11-14T03:04:01.112Z,91.25
2017-11-14T03:06:29.360Z,91.15
2017-11-14T03:08:58.374Z,91.19
2017-11-14T03:11:26.631Z,90.89
2017-11-14T03:13:55.644Z,91.14
2017-11-14T03:16:23.891Z,91.15
2017-11-14T03:18:52.131Z,91.32
2017-11-14T03:21:21.153Z,90.98
2017-11-14T03:23:49.391Z,90.63
2017-11-14T03:26:17.640Z,91.08
2017-11-14T03:28:45.897Z,91.64
2017-11-14T03:31:14.936Z,91.65
2017-11-14T03:33:43.185Z,91.53
2017-11-14T03:36:11.449Z,91.30
2017-11-14T03:38:40.466Z,91.22
2017-11-14T03:41:08.742Z,91.28
2017-11-14T03:43:36.999Z,91.25
2017-11-14T03:46:05.250Z,91.37
2017-11-14T03:48:33.511Z,91.37
2017-11-14T03:51:01.759Z,91.12
2017-11-14T03:53:30.004Z,91.20
2017-11-14T03:55:58.259Z,91.10
2017-11-14T03:58:27.266Z,90.69
2017-11-14T04:00:55.531Z,90.52
2017-11-14T04:03:24.548Z,90.34
2017-11-14T04:05:52.800Z,90.21
2017-11-14T04:08:21.811Z,90.19
2017-11-14T04:10:50.054Z,90.21
2017-11-14T04:13:18.310Z,90.53
2017-11-14T04:15:46.563Z,90.52
2017-11-14T04:18:14.806Z,90.06
2017-11-14T04:20:43.057Z,90.43
2017-11-14T04:23:12.078Z,90.93
2017-11-14T04:25:41.088Z,91.71
2017-11-14T04:28:09.342Z,92.21
2017-11-14T04:30:37.591Z,92.83
2017-11-14T04:33:05.839Z,92.94
2017-11-14T04:35:34.095Z,92.87
2017-11-14T04:38:02.342Z,92.58
2017-11-14T04:40:31.357Z,92.40
2017-11-14T04:42:59.605Z,92.41
2017-11-14T04:45:28.617Z,92.22
2017-11-14T04:47:56.867Z,92.40
2017-11-14T04:50:25.883Z,92.45
2017-11-14T04:52:54.127Z,92.32
2017-11-14T04:55:22.373Z,92.32
2017-11-14T04:57:50.617Z,92.29
2017-11-14T05:00:18.869Z,92.34
2017-11-14T05:02:47.884Z,92.44
2017-11-14T05:05:16.139Z,92.33
2017-11-14T05:07:45.163Z,91.92
2017-11-14T05:10:13.407Z,91.85
2017-11-14T05:12:42.418Z,91.67
2017-11-14T05:15:10.673Z,91.76
2017-11-14T05:17:39.683Z,91.60
2017-11-14T05:20:07.930Z,91.37
2017-11-14T05:22:36.942Z,91.24
2017-11-14T05:25:05.202Z,91.78
2017-11-14T05:27:34.223Z,91.95
2017-11-14T05:30:02.484Z,92.02
2017-11-14T05:32:31.490Z,92.12
2017-11-14T05:34:59.743Z,91.97
2017-11-14T05:37:28.780Z,92.01
2017-11-14T05:39:57.059Z,91.88
2017-11-14T05:42:25.311Z,92.40
2017-11-14T05:44:53.556Z,92.48
2017-11-14T05:47:21.827Z,92.37
2017-11-14T05:49:50.071Z,92.64
2017-11-14T05:52:18.326Z,92.51
2017-11-14T05:54:46.580Z,92.33
2017-11-14T05:57:14.838Z,92.62
2017-11-14T05:59:43.870Z,92.67
2017-11-14T06:02:12.122Z,92.44
2017-11-14T06:04:41.133Z,92.35
2017-11-14T06:07:09.412Z,92.35
2017-11-14T06:09:37.666Z,92.34
2017-11-14T06:12:06.685Z,92.19
2017-11-14T06:14:34.948Z,92.10
2017-11-14T06:17:03.213Z,92.17
2017-11-14T06:19:32.235Z,92.16
2017-11-14T06:22:00.488Z,92.00
2017-11-14T06:24:28.804Z,92.29
2017-11-14T06:26:57.045Z,92.36
2017-11-14T06:29:25.306Z,92.58
2017-11-14T06:31:54.324Z,92.64
2017-11-14T06:34:22.584Z,92.62
2017-11-14T06:36:50.829Z,92.79
2017-11-14T06:39:19.859Z,93.00
2017-11-14T06:41:48.116Z,93.10
2017-11-14T06:44:17.135Z,93.21
2017-11-14T06:46:45.388Z,93.32
2017-11-14T06:49:13.650Z,93.29
2017-11-14T06:51:41.903Z,93.38
2017-11-14T06:54:10.155Z,93.40
2017-11-14T06:56:38.411Z,93.03
2017-11-14T06:59:06.678Z,92.73
2017-11-14T07:01:34.935Z,92.40
2017-11-14T07:04:03.950Z,91.94
2017-11-14T07:06:32.215Z,92.12
2017-11-14T07:09:00.470Z,92.53
2017-11-14T07:11:29.480Z,92.67
2017-11-14T07:13:57.742Z,92.63
2017-11-14T07:16:25.983Z,92.39
2017-11-14T07:18:54.234Z,92.01
2017-11-14T07:21:22.481Z,92.10
2017-11-14T07:23:50.751Z,91.86
2017-11-14T07:26:19.007Z,91.91
2017-11-14T07:28:47.256Z,91.76
2017-11-14T07:31:15.515Z,91.74
2017-11-14T07:33:43.760Z,91.62
2017-11-14T07:36:12.014Z,91.43
2017-11-14T07:38:41.031Z,91.38
2017-11-14T07:41:09.315Z,91.38
2017-11-14T07:43:37.550Z,91.33
2017-11-14T07:46:06.572Z,91.31
2017-11-14T07:48:34.821Z,91.23
2017-11-14T07:51:03.084Z,91.05
2017-11-14T07:53:31.332Z,91.05
2017-11-14T07:55:59.594Z,91.10
2017-11-14T07:58:27.843Z,90.88
2017-11-14T08:00:56.850Z,90.77
2017-11-14T08:03:25.103Z,90.79
2017-11-14T08:05:54.118Z,90.59
2017-11-14T08:08:22.363Z,90.65
2017-11-14T08:10:50.614Z,90.56
2017-11-14T08:13:18.880Z,89.98
2017-11-14T08:15:47.126Z,89.97
2017-11-14T08:18:15.374Z,89.52
2017-11-14T08:20:44.381Z,89.34
2017-11-14T08:23:12.631Z,89.46
2017-11-14T08:25:40.876Z,89.64
2017-11-14T08:28:09.119Z,89.47
2017-11-14T08:30:37.370Z,88.98
2017-11-14T08:33:07.108Z,88.72
2017-11-14T08:35:35.366Z,88.78
2017-11-14T08:38:03.620Z,88.66
2017-11-14T08:40:32.641Z,88.32
2017-11-14T08:43:00.874Z,87.95
2017-11-14T08:45:29.128Z,88.52
2017-11-14T08:47:57.364Z,88.15
2017-11-14T08:50:25.616Z,88.16
2017-11-14T08:52:54.634Z,88.27
2017-11-14T08:55:22.880Z,87.89
2017-11-14T08:57:51.117Z,87.23
2017-11-14T09:00:19.372Z,87.35
2017-11-14T09:02:47.609Z,87.17
2017-11-14T09:05:15.867Z,86.54
2017-11-14T09:07:44.112Z,86.35
2017-11-14T09:10:12.361Z,86.71
2017-11-14T09:12:40.626Z,85.59
2017-11-14T09:15:09.627Z,85.46
2017-11-14T09:17:37.879Z,85.89
2017-11-14T09:20:06.123Z,86.79
2017-11-14T09:22:34.382Z,86.97
2017-11-14T09:25:02.651Z,86.19
2017-11-14T09:27:31.639Z,86.55
2017-11-14T09:29:59.888Z,85.82
2017-11-14T09:32:28.903Z,84.20
2017-11-14T09:34:57.136Z,84.17
2017-11-14T09:37:25.387Z,83.48
2017-11-14T09:39:54.203Z,85.40
2017-11-14T09:42:22.452Z,84.51
2017-11-14T09:44:50.711Z,85.85
2017-11-14T09:47:18.949Z,87.70
2017-11-14T09:49:47.955Z,87.77
2017-11-14T09:52:16.208Z,88.35
2017-11-14T09:54:45.214Z,88.37
2017-11-14T09:57:14.227Z,88.28
2017-11-14T09:59:42.475Z,87.43
2017-11-14T10:02:11.491Z,87.39
2017-11-14T10:04:39.730Z,87.73
2017-11-14T10:07:08.751Z,86.20
2017-11-14T10:09:36.984Z,87.17
2017-11-14T10:12:05.236Z,86.16
2017-11-14T10:14:33.479Z,86.66
2017-11-14T10:17:01.731Z,85.41
2017-11-14T10:19:30.739Z,84.20
2017-11-14T10:21:58.989Z,83.89
2017-11-14T10:24:27.243Z,85.23
2017-11-14T10:26:55.488Z,84.11
2017-11-14T10:29:23.735Z,83.63
2017-11-14T10:31:52.743Z,84.33
2017-11-14T10:34:20.989Z,82.53
2017-11-14T10:36:50.004Z,79.89
2017-11-14T10:39:18.248Z,82.14
2017-11-14T10:41:46.497Z,80.70
2017-11-14T10:44:15.499Z,81.98
2017-11-14T10:46:43.747Z,81.18
2017-11-14T10:49:11.996Z,80.44
2017-11-14T10:51:41.012Z,80.91
2017-11-14T10:54:09.255Z,84.26
2017-11-14T10:56:38.268Z,84.86
2017-11-14T10:59:06.527Z,85.18
2017-11-14T11:01:35.550Z,84.27
2017-11-14T11:04:03.790Z,85.41
2017-11-14T11:06:32.816Z,84.53
2017-11-14T11:09:01.074Z,85.09
2017-11-14T11:11:29.319Z,84.44
2017-11-14T11:13:57.565Z,84.69
2017-11-14T11:16:40.693Z,83.18
2017-11-14T11:19:08.943Z,83.36
2017-11-14T11:21:37.175Z,83.88
2017-11-14T11:24:06.190Z,83.27
2017-11-14T11:26:34.459Z,80.11
2017-11-14T11:29:03.463Z,79.03
2017-11-14T11:33:59.251Z,81.58
2017-11-14T11:36:27.502Z,78.44
2017-11-14T11:38:55.747Z,74.86
2017-11-14T11:41:23.991Z,70.66
2017-11-14T11:43:53.004Z,70.36
2017-11-14T11:46:22.018Z,66.78
2017-11-14T11:48:51.087Z,68.96
2017-11-14T11:51:20.108Z,64.23
2017-11-14T11:53:48.355Z,70.45
2017-11-14T11:56:17.385Z,73.47
2017-11-14T11:58:45.622Z,72.85
2017-11-14T12:01:14.634Z,76.79
2017-11-14T12:03:42.880Z,78.61
2017-11-14T12:06:11.886Z,80.91
2017-11-14T12:08:40.145Z,81.49
2017-11-14T12:11:08.384Z,81.38
2017-11-14T12:13:36.632Z,80.73
2017-11-14T12:16:04.884Z,79.07
2017-11-14T12:18:33.914Z,80.22
2017-11-14T12:21:02.148Z,79.05
2017-11-14T12:23:31.151Z,77.91
2017-11-14T12:25:59.412Z,76.20
2017-11-14T12:28:27.643Z,74.87
2017-11-14T12:30:55.886Z,72.43
2017-11-14T12:33:24.123Z,77.50
2017-11-14T12:35:52.370Z,79.44
2017-11-14T12:38:20.607Z,80.20
2017-11-14T12:40:48.855Z,82.23
2017-11-14T12:43:17.094Z,81.48
2017-11-14T12:45:45.330Z,82.42
2017-11-14T12:48:13.580Z,83.57
2017-11-14T12:50:41.816Z,84.25
2017-11-14T12:53:10.061Z,83.91
2017-11-14T12:55:38.310Z,84.04
2017-11-14T12:58:06.555Z,86.18
2017-11-14T13:00:34.803Z,86.23
2017-11-14T13:03:03.052Z,85.09
2017-11-14T13:05:32.055Z,86.02
2017-11-14T13:08:00.309Z,85.86
2017-11-14T13:10:29.314Z,86.82
2017-11-14T13:12:58.346Z,86.42
2017-11-14T13:15:26.592Z,86.30
2017-11-14T13:17:54.836Z,86.17
2017-11-14T13:20:23.079Z,84.93
2017-11-14T13:22:51.334Z,83.54
2017-11-14T13:25:19.581Z,83.73
2017-11-14T13:27:48.588Z,85.51
2017-11-14T13:30:16.836Z,85.47
2017-11-14T13:32:45.851Z,85.23
2017-11-14T13:35:14.115Z,85.46
2017-11-14T13:37:43.140Z,86.33
2017-11-14T13:40:11.373Z,85.55
2017-11-14T13:42:40.391Z,85.15
2017-11-14T13:45:08.647Z,85.18
2017-11-14T13:47:37.650Z,85.42
2017-11-14T13:50:05.899Z,85.95
2017-11-14T13:52:34.155Z,85.06
2017-11-14T13:55:02.395Z,86.35
2017-11-14T13:57:30.655Z,85.60
2017-11-14T13:59:58.900Z,85.51
2017-11-14T14:02:27.138Z,86.47
2017-11-14T14:04:55.388Z,86.10
2017-11-14T14:07:23.635Z,84.31
2017-11-14T14:09:52.643Z,83.84
2017-11-14T14:12:21.661Z,83.69
2017-11-14T14:14:49.905Z,81.15
2017-11-14T14:17:18.919Z,84.23
2017-11-14T14:19:47.165Z,85.56
2017-11-14T14:22:15.414Z,84.87
2017-11-14T14:24:43.663Z,85.75
2017-11-14T14:27:11.891Z,84.83
2017-11-14T14:29:40.898Z,82.81
2017-11-14T14:32:09.916Z,83.74
2017-11-14T14:34:38.165Z,83.10
2017-11-14T14:37:07.179Z,84.27
2017-11-14T14:39:35.411Z,84.25
2017-11-14T14:42:03.647Z,83.60
2017-11-14T14:44:31.891Z,84.22
2017-11-14T14:47:00.133Z,84.59
2017-11-14T14:49:28.378Z,85.33
2017-11-14T14:51:56.623Z,85.54
2017-11-14T14:54:24.861Z,85.76
2017-11-14T14:56:53.116Z,86.30
2017-11-14T14:59:21.366Z,86.26
2017-11-14T15:01:49.604Z,86.14
2017-11-14T15:04:18.615Z,86.17
2017-11-14T15:06:46.871Z,86.21
2017-11-14T15:09:15.882Z,86.49
2017-11-14T15:11:44.124Z,86.87
2017-11-14T15:14:12.367Z,87.00
2017-11-14T15:16:40.623Z,87.23
2017-11-14T15:19:08.860Z,87.21
2017-11-14T15:21:37.878Z,87.84
2017-11-14T15:24:06.118Z,87.99
2017-11-14T15:26:34.366Z,87.90
2017-11-14T15:29:02.607Z,87.88
2017-11-14T15:31:30.858Z,88.16
2017-11-14T15:33:59.879Z,88.02
2017-11-14T15:36:28.123Z,88.18
2017-11-14T15:38:57.141Z,88.31
2017-11-14T15:41:25.390Z,88.26
2017-11-14T15:43:54.407Z,88.38
2017-11-14T15:46:22.661Z,88.64
2017-11-14T15:48:51.672Z,88.87
2017-11-14T15:51:20.675Z,89.20
2017-11-14T15:53:48.925Z,89.16
2017-11-14T15:56:17.939Z,89.40
2017-11-14T15:58:46.179Z,89.14
2017-11-14T16:01:14.419Z,89.42
2017-11-14T16:03:42.680Z,89.24
2017-11-14T16:06:10.931Z,89.13
2017-11-14T16:08:39.187Z,89.39
2017-11-14T16:11:07.433Z,89.24
2017-11-14T16:13:35.693Z,89.62
2017-11-14T16:16:03.928Z,89.51
2017-11-14T16:18:32.945Z,89.56
2017-11-14T16:21:01.198Z,89.54
2017-11-14T16:23:30.202Z,89.59
2017-11-14T16:25:58.455Z,89.44
2017-11-14T16:28:27.488Z,89.31
2017-11-14T16:30:55.742Z,89.26
2017-11-14T16:33:24.745Z,89.14
2017-11-14T16:35:53.002Z,89.05
2017-11-14T16:38:22.114Z,88.98
2017-11-14T16:40:50.363Z,88.91
2017-11-14T16:43:19.366Z,89.10
2017-11-14T16:45:47.632Z,89.20
2017-11-14T16:48:16.651Z,89.39
2017-11-14T16:50:44.902Z,89.22
2017-11-14T16:53:13.935Z,89.40
2017-11-14T16:55:42.177Z,89.38
2017-11-14T16:58:11.195Z,89.38
2017-11-14T17:00:39.446Z,89.37
2017-11-14T17:03:08.492Z,89.45
2017-11-14T17:05:36.747Z,89.41
2017-11-14T17:08:04.993Z,89.38
2017-11-14T17:10:34.031Z,89.34
2017-11-14T17:13:02.267Z,89.45
2017-11-14T17:15:30.522Z,89.36
2017-11-14T17:17:59.544Z,89.39
2017-11-14T17:20:27.800Z,89.07
2017-11-14T17:22:56.812Z,89.12
2017-11-14T17:25:25.063Z,88.81
2017-11-14T17:27:54.083Z,88.73
2017-11-14T17:30:22.336Z,88.85
2017-11-14T17:32:51.364Z,89.08
2017-11-14T17:35:19.629Z,89.10
2017-11-14T17:37:47.895Z,89.18
2017-11-14T17:40:19.683Z,89.32
2017-11-14T17:42:47.976Z,89.48
2017-11-14T17:45:16.231Z,89.35
2017-11-14T17:47:44.535Z,89.40
2017-11-14T17:50:12.899Z,89.51
2017-11-14T17:52:41.950Z,89.62
2017-11-14T17:55:11.257Z,89.58
2017-11-14T17:57:39.588Z,89.78
2017-11-14T18:00:07.913Z,89.79
2017-11-14T18:02:36.225Z,89.42
2017-11-14T18:05:05.665Z,89.43
2017-11-14T18:07:34.739Z,89.25
2017-11-14T18:10:02.994Z,89.12
2017-11-14T18:12:31.252Z,89.29
2017-11-14T18:14:59.742Z,89.22
2017-11-14T18:17:28.027Z,88.81
2017-11-14T18:19:56.331Z,89.04
2017-11-14T18:22:24.618Z,89.11
2017-11-14T18:24:53.660Z,89.26
2017-11-14T18:27:21.936Z,89.64
2017-11-14T18:29:50.225Z,89.79
2017-11-14T18:32:18.743Z,89.97
2017-11-14T18:35:00.608Z,90.20
2017-11-14T18:37:28.952Z,90.06
2017-11-14T18:39:57.283Z,89.94
2017-11-14T18:42:25.593Z,90.01
2017-11-14T18:44:53.904Z,89.75
2017-11-14T18:47:22.976Z,89.60
2017-11-14T18:49:51.269Z,89.26
2017-11-14T18:52:19.642Z,89.26
2017-11-14T18:54:47.980Z,89.11
2017-11-14T18:57:17.090Z,88.90
2017-11-14T18:59:45.400Z,88.95
2017-11-14T19:02:13.684Z,88.71
2017-11-14T19:04:41.974Z,88.57
2017-11-14T19:07:10.300Z,88.63
2017-11-14T19:09:38.594Z,88.59
2017-11-14T19:12:06.885Z,88.19
2017-11-14T19:14:35.145Z,88.26
2017-11-14T19:17:03.386Z,87.60
2017-11-14T19:19:32.402Z,87.25
2017-11-14T19:22:00.649Z,87.41
2017-11-14T19:24:29.686Z,87.55
2017-11-14T19:26:57.934Z,87.12
2017-11-14T19:29:26.972Z,87.40
2017-11-14T19:31:55.230Z,87.41
2017-11-14T19:34:23.475Z,87.29
2017-11-14T19:36:51.754Z,87.19
2017-11-14T19:39:20.772Z,87.22
2017-11-14T19:41:49.023Z,86.77
2017-11-14T19:44:18.028Z,87.11
2017-11-14T19:46:46.324Z,86.93
2017-11-14T19:49:14.564Z,86.85
2017-11-14T19:51:43.566Z,87.22
2017-11-14T19:54:11.827Z,86.97
2017-11-14T19:56:40.839Z,87.28
2017-11-14T19:59:09.092Z,87.40
2017-11-14T20:01:38.184Z,87.35
2017-11-14T20:04:07.216Z,87.39
2017-11-14T20:06:35.486Z,87.28
2017-11-14T20:09:03.745Z,87.35
2017-11-14T20:11:32.766Z,87.24
2017-11-14T20:14:01.040Z,87.44
2017-11-14T20:16:29.307Z,87.30
2017-11-14T20:18:57.568Z,87.38
2017-11-14T20:21:25.976Z,87.47
2017-11-14T20:23:54.255Z,87.24
2017-11-14T20:26:22.524Z,87.49
2017-11-14T20:28:50.775Z,87.55
2017-11-14T20:31:19.025Z,87.44
2017-11-14T20:33:47.267Z,87.37
2017-11-14T20:36:15.529Z,87.27
2017-11-14T20:38:43.789Z,87.22
2017-11-14T20:41:12.075Z,86.95
2017-11-14T20:43:40.334Z,86.78
2017-11-14T20:46:08.607Z,86.74
2017-11-14T20:48:37.620Z,86.72
2017-11-14T20:51:05.868Z,86.87
2017-11-14T20:53:34.886Z,87.22
2017-11-14T20:56:03.130Z,87.16
2017-11-14T20:58:32.151Z,87.12
2017-11-14T21:01:00.422Z,86.87
2017-11-14T21:03:28.683Z,86.93
2017-11-14T21:05:57.695Z,87.16
2017-11-14T21:08:25.958Z,87.12
2017-11-14T21:10:54.209Z,87.12
2017-11-14T21:13:22.459Z,87.11
2017-11-14T21:15:50.787Z,87.01
2017-11-14T21:18:19.058Z,87.05
2017-11-14T21:20:48.069Z,86.99
2017-11-14T21:23:16.338Z,86.89
2017-11-14T21:25:44.597Z,86.73
2017-11-14T21:28:12.842Z,86.66
2017-11-14T21:30:41.175Z,86.83
2017-11-14T21:33:09.472Z,86.66
2017-11-14T21:35:37.790Z,86.58
2017-11-14T21:38:06.032Z,86.36
2017-11-14T21:40:34.282Z,86.16
2017-11-14T21:43:02.545Z,86.20
2017-11-14T21:45:31.599Z,86.05
2017-11-14T21:47:59.847Z,86.23
2017-11-14T21:50:28.106Z,86.33
2017-11-14T21:52:56.519Z,86.97
2017-11-14T21:55:24.805Z,87.16
2017-11-14T21:57:53.035Z,87.16
2017-11-14T22:00:21.296Z,86.49
2017-11-14T22:02:50.296Z,86.75
2017-11-14T22:05:18.573Z,86.56
2017-11-14T22:07:47.592Z,86.43
2017-11-14T22:10:15.837Z,86.22
2017-11-14T22:12:44.852Z,86.25
2017-11-14T22:15:14.023Z,86.21
2017-11-14T22:17:43.048Z,86.37
2017-11-14T22:20:11.346Z,86.57
2017-11-14T22:22:39.604Z,86.38
2017-11-14T22:25:07.843Z,86.41
2017-11-14T22:27:36.875Z,86.40
2017-11-14T22:30:05.292Z,86.03
2017-11-14T22:32:33.546Z,85.80
2017-11-14T22:35:01.820Z,85.86
2017-11-14T22:37:30.067Z,85.80
2017-11-14T22:39:58.312Z,85.88
2017-11-14T22:42:27.364Z,86.57
2017-11-14T22:44:55.673Z,87.65
2017-11-14T22:47:23.975Z,88.59
2017-11-14T22:49:53.007Z,88.60
2017-11-14T22:52:21.288Z,88.61
2017-11-14T22:54:49.571Z,88.33
2017-11-14T22:57:17.807Z,88.35
2017-11-14T22:59:46.057Z,88.77
2017-11-14T23:02:15.078Z,89.06
2017-11-14T23:04:43.339Z,89.23
2017-11-14T23:07:11.597Z,89.42
2017-11-14T23:09:40.621Z,89.57
2017-11-14T23:12:08.864Z,89.98
2017-11-14T23:14:37.903Z,90.42
2017-11-14T23:17:06.147Z,90.74
2017-11-14T23:19:34.399Z,90.93
2017-11-14T23:22:02.652Z,91.00
2017-11-14T23:24:30.897Z,91.15
2017-11-14T23:26:59.162Z,91.19
2017-11-14T23:29:27.415Z,91.34
2017-11-14T23:31:56.422Z,91.35
2017-11-14T23:34:24.685Z,91.39
2017-11-14T23:36:53.694Z,91.32
2017-11-14T23:39:21.951Z,91.23
2017-11-14T23:41:50.971Z,91.25
2017-11-14T23:44:19.222Z,91.15
2017-11-14T23:46:48.239Z,91.07
2017-11-14T23:49:16.490Z,91.18
2017-11-14T23:51:45.508Z,90.93
2017-11-14T23:54:13.764Z,90.87
2017-11-14T23:56:42.788Z,90.90
2017-11-14T23:59:11.048Z,90.74
